sensor_id;sensor_type;location;lat;lon;timestamp;pressure;altitude;pressure_sealevel;temperature;humidity
58471;BME280;44258;51.288;12.068;2023-01-01T00:01:28;100261.22;;;15.08;45.67
58471;BME280;44258;51.288;12.068;2023-01-01T00:03:57;100257.13;;;15.02;45.52
58471;BME280;44258;51.288;12.068;2023-01-01T00:06:24;100251.31;;;14.95;45.60
58471;BME280;44258;51.288;12.068;2023-01-01T00:08:50;100252.44;;;14.93;46.19
58471;BME280;44258;51.288;12.068;2023-01-01T00:11:38;100267.84;;;15.04;45.81
58471;BME280;44258;51.288;12.068;2023-01-01T00:14:06;100256.16;;;15.03;45.86
58471;BME280;44258;51.288;12.068;2023-01-01T00:16:33;100261.69;;;15.02;46.22
58471;BME280;44258;51.288;12.068;2023-01-01T00:18:59;100271.09;;;14.85;46.49
58471;BME280;44258;51.288;12.068;2023-01-01T00:21:26;100269.53;;;14.93;46.09
58471;BME280;44258;51.288;12.068;2023-01-01T00:23:52;100277.28;;;14.98;46.30
58471;BME280;44258;51.288;12.068;2023-01-01T00:26:19;100277.09;;;15.01;46.38
58471;BME280;44258;51.288;12.068;2023-01-01T00:28:46;100273.38;;;15.02;46.00
58471;BME280;44258;51.288;12.068;2023-01-01T00:31:15;100282.50;;;15.01;46.08
58471;BME280;44258;51.288;12.068;2023-01-01T00:33:43;100272.44;;;15.14;46.01
58471;BME280;44258;51.288;12.068;2023-01-01T00:36:11;100269.25;;;15.09;46.05
58471;BME280;44258;51.288;12.068;2023-01-01T00:38:38;100269.72;;;15.03;46.05
58471;BME280;44258;51.288;12.068;2023-01-01T00:41:06;100280.75;;;15.00;46.01
58471;BME280;44258;51.288;12.068;2023-01-01T00:43:32;100272.53;;;15.02;46.17
58471;BME280;44258;51.288;12.068;2023-01-01T00:45:59;100270.06;;;14.99;45.87
58471;BME280;44258;51.288;12.068;2023-01-01T00:48:27;100282.59;;;15.00;46.07
58471;BME280;44258;51.288;12.068;2023-01-01T00:50:54;100278.56;;;15.05;45.94
58471;BME280;44258;51.288;12.068;2023-01-01T00:53:21;100283.13;;;15.05;45.96
58471;BME280;44258;51.288;12.068;2023-01-01T00:55:49;100283.72;;;14.97;46.09
58471;BME280;44258;51.288;12.068;2023-01-01T00:58:17;100283.13;;;15.05;46.01
58471;BME280;44258;51.288;12.068;2023-01-01T01:00:44;100291.44;;;14.90;46.09
58471;BME280;44258;51.288;12.068;2023-01-01T01:03:14;100284.28;;;14.89;46.32
58471;BME280;44258;51.288;12.068;2023-01-01T01:05:58;100295.50;;;14.96;46.20
58471;BME280;44258;51.288;12.068;2023-01-01T01:08:29;100296.44;;;14.84;46.45
58471;BME280;44258;51.288;12.068;2023-01-01T01:13:31;100286.88;;;14.91;46.44
58471;BME280;44258;51.288;12.068;2023-01-01T01:15:59;100287.84;;;14.90;46.25
58471;BME280;44258;51.288;12.068;2023-01-01T01:18:26;100290.06;;;14.85;46.37
58471;BME280;44258;51.288;12.068;2023-01-01T01:20:53;100289.50;;;14.80;46.29
58471;BME280;44258;51.288;12.068;2023-01-01T01:23:22;100291.13;;;14.58;46.71
58471;BME280;44258;51.288;12.068;2023-01-01T01:25:48;100300.28;;;14.68;46.66
58471;BME280;44258;51.288;12.068;2023-01-01T01:28:15;100297.88;;;14.77;46.31
58471;BME280;44258;51.288;12.068;2023-01-01T01:30:42;100289.88;;;14.75;46.22
58471;BME280;44258;51.288;12.068;2023-01-01T01:33:08;100292.13;;;14.81;46.32
58471;BME280;44258;51.288;12.068;2023-01-01T01:35:35;100299.59;;;14.78;46.44
58471;BME280;44258;51.288;12.068;2023-01-01T01:38:02;100300.47;;;14.78;46.29
58471;BME280;44258;51.288;12.068;2023-01-01T01:40:32;100290.41;;;14.80;46.06
58471;BME280;44258;51.288;12.068;2023-01-01T01:42:59;100294.19;;;14.78;46.09
58471;BME280;44258;51.288;12.068;2023-01-01T01:45:25;100301.53;;;14.75;46.08
58471;BME280;44258;51.288;12.068;2023-01-01T01:47:54;100299.13;;;14.84;46.00
58471;BME280;44258;51.288;12.068;2023-01-01T01:50:24;100305.53;;;14.83;46.00
58471;BME280;44258;51.288;12.068;2023-01-01T01:53:01;100304.78;;;14.81;46.14
58471;BME280;44258;51.288;12.068;2023-01-01T01:55:32;100307.00;;;14.63;46.11
58471;BME280;44258;51.288;12.068;2023-01-01T01:58:01;100309.16;;;14.70;46.30
58471;BME280;44258;51.288;12.068;2023-01-01T02:00:29;100314.78;;;14.67;46.15
58471;BME280;44258;51.288;12.068;2023-01-01T02:02:59;100305.91;;;14.78;46.14
58471;BME280;44258;51.288;12.068;2023-01-01T02:05:28;100309.22;;;14.82;46.05
58471;BME280;44258;51.288;12.068;2023-01-01T02:07:56;100311.53;;;14.75;46.05
58471;BME280;44258;51.288;12.068;2023-01-01T02:10:25;100308.16;;;14.71;46.30
58471;BME280;44258;51.288;12.068;2023-01-01T02:12:53;100299.94;;;14.73;46.43
58471;BME280;44258;51.288;12.068;2023-01-01T02:15:22;100300.47;;;14.78;46.23
58471;BME280;44258;51.288;12.068;2023-01-01T02:17:59;100299.09;;;14.72;46.14
58471;BME280;44258;51.288;12.068;2023-01-01T02:20:41;100305.25;;;14.74;46.33
58471;BME280;44258;51.288;12.068;2023-01-01T02:23:23;100290.84;;;14.74;46.36
58471;BME280;44258;51.288;12.068;2023-01-01T02:26:04;100297.03;;;14.63;46.62
58471;BME280;44258;51.288;12.068;2023-01-01T02:28:48;100300.75;;;14.62;46.83
58471;BME280;44258;51.288;12.068;2023-01-01T02:31:21;100300.00;;;14.60;46.93
58471;BME280;44258;51.288;12.068;2023-01-01T02:33:52;100295.13;;;14.52;46.68
58471;BME280;44258;51.288;12.068;2023-01-01T02:36:22;100296.72;;;14.68;46.80
58471;BME280;44258;51.288;12.068;2023-01-01T02:38:54;100298.91;;;14.63;47.14
58471;BME280;44258;51.288;12.068;2023-01-01T02:41:25;100289.91;;;14.62;47.03
58471;BME280;44258;51.288;12.068;2023-01-01T02:43:53;100280.41;;;14.57;47.24
58471;BME280;44258;51.288;12.068;2023-01-01T02:46:20;100292.53;;;14.51;47.40
58471;BME280;44258;51.288;12.068;2023-01-01T02:48:48;100294.59;;;14.47;47.45
58471;BME280;44258;51.288;12.068;2023-01-01T02:51:28;100277.56;;;14.21;48.80
58471;BME280;44258;51.288;12.068;2023-01-01T02:54:05;100284.16;;;13.91;49.98
58471;BME280;44258;51.288;12.068;2023-01-01T02:56:37;100293.34;;;13.63;51.00
58471;BME280;44258;51.288;12.068;2023-01-01T02:59:16;100292.91;;;13.44;51.65
58471;BME280;44258;51.288;12.068;2023-01-01T03:02:09;100291.66;;;13.22;52.51
58471;BME280;44258;51.288;12.068;2023-01-01T03:04:45;100287.03;;;13.24;52.27
58471;BME280;44258;51.288;12.068;2023-01-01T03:07:24;100278.66;;;13.14;52.55
58471;BME280;44258;51.288;12.068;2023-01-01T03:09:58;100281.09;;;13.05;53.04
58471;BME280;44258;51.288;12.068;2023-01-01T03:12:30;100283.44;;;12.97;53.22
58471;BME280;44258;51.288;12.068;2023-01-01T03:15:13;100288.09;;;12.94;53.25
58471;BME280;44258;51.288;12.068;2023-01-01T03:17:46;100283.97;;;12.89;53.61
58471;BME280;44258;51.288;12.068;2023-01-01T03:20:18;100286.16;;;12.97;53.28
58471;BME280;44258;51.288;12.068;2023-01-01T03:22:47;100281.41;;;13.00;53.27
58471;BME280;44258;51.288;12.068;2023-01-01T03:25:19;100285.72;;;13.03;53.17
58471;BME280;44258;51.288;12.068;2023-01-01T03:27:49;100285.72;;;13.03;53.18
58471;BME280;44258;51.288;12.068;2023-01-01T03:30:20;100297.50;;;13.02;53.31
58471;BME280;44258;51.288;12.068;2023-01-01T03:32:48;100286.06;;;12.98;53.47
58471;BME280;44258;51.288;12.068;2023-01-01T03:35:33;100296.09;;;12.96;53.54
58471;BME280;44258;51.288;12.068;2023-01-01T03:38:03;100296.91;;;12.84;54.30
58471;BME280;44258;51.288;12.068;2023-01-01T03:40:33;100298.88;;;12.94;53.64
58471;BME280;44258;51.288;12.068;2023-01-01T03:43:05;100290.00;;;12.92;53.52
58471;BME280;44258;51.288;12.068;2023-01-01T03:45:37;100289.03;;;12.81;54.06
58471;BME280;44258;51.288;12.068;2023-01-01T03:48:06;100292.91;;;12.77;54.25
58471;BME280;44258;51.288;12.068;2023-01-01T03:50:40;100291.59;;;12.82;54.28
58471;BME280;44258;51.288;12.068;2023-01-01T03:53:18;100292.13;;;12.74;54.33
58471;BME280;44258;51.288;12.068;2023-01-01T03:55:49;100296.13;;;12.82;54.07
58471;BME280;44258;51.288;12.068;2023-01-01T03:58:23;100294.28;;;12.82;54.07
58471;BME280;44258;51.288;12.068;2023-01-01T04:01:00;100293.84;;;12.75;54.15
58471;BME280;44258;51.288;12.068;2023-01-01T04:03:29;100299.06;;;12.79;54.33
58471;BME280;44258;51.288;12.068;2023-01-01T04:06:00;100295.94;;;12.85;54.22
58471;BME280;44258;51.288;12.068;2023-01-01T04:08:27;100292.50;;;12.83;54.09
58471;BME280;44258;51.288;12.068;2023-01-01T04:10:56;100300.22;;;12.74;54.51
58471;BME280;44258;51.288;12.068;2023-01-01T04:13:23;100292.00;;;12.76;54.66
58471;BME280;44258;51.288;12.068;2023-01-01T04:15:50;100295.72;;;12.88;54.20
58471;BME280;44258;51.288;12.068;2023-01-01T04:18:18;100292.84;;;12.91;54.17
58471;BME280;44258;51.288;12.068;2023-01-01T04:20:45;100301.69;;;12.93;54.04
58471;BME280;44258;51.288;12.068;2023-01-01T04:23:12;100300.72;;;12.94;53.87
58471;BME280;44258;51.288;12.068;2023-01-01T04:25:38;100315.75;;;12.98;53.76
58471;BME280;44258;51.288;12.068;2023-01-01T04:28:05;100320.94;;;13.01;53.59
58471;BME280;44258;51.288;12.068;2023-01-01T04:30:31;100315.19;;;12.93;53.82
58471;BME280;44258;51.288;12.068;2023-01-01T04:32:58;100328.53;;;12.82;54.07
58471;BME280;44258;51.288;12.068;2023-01-01T04:35:25;100316.19;;;12.78;54.06
58471;BME280;44258;51.288;12.068;2023-01-01T04:37:52;100326.50;;;12.85;53.89
58471;BME280;44258;51.288;12.068;2023-01-01T04:40:19;100327.16;;;12.89;53.70
58471;BME280;44258;51.288;12.068;2023-01-01T04:42:45;100328.91;;;13.03;53.55
58471;BME280;44258;51.288;12.068;2023-01-01T04:45:11;100334.03;;;13.07;53.27
58471;BME280;44258;51.288;12.068;2023-01-01T04:47:39;100343.84;;;13.08;53.19
58471;BME280;44258;51.288;12.068;2023-01-01T04:50:07;100360.81;;;13.10;53.23
58471;BME280;44258;51.288;12.068;2023-01-01T04:52:35;100352.53;;;13.13;53.27
58471;BME280;44258;51.288;12.068;2023-01-01T04:55:01;100364.09;;;13.15;53.06
58471;BME280;44258;51.288;12.068;2023-01-01T04:57:28;100349.91;;;13.12;53.16
58471;BME280;44258;51.288;12.068;2023-01-01T04:59:58;100364.94;;;13.16;53.00
58471;BME280;44258;51.288;12.068;2023-01-01T05:02:25;100367.44;;;13.19;52.84
58471;BME280;44258;51.288;12.068;2023-01-01T05:04:51;100369.97;;;13.22;52.96
58471;BME280;44258;51.288;12.068;2023-01-01T05:07:18;100387.59;;;13.28;52.64
58471;BME280;44258;51.288;12.068;2023-01-01T05:09:45;100391.16;;;13.28;52.62
58471;BME280;44258;51.288;12.068;2023-01-01T05:12:12;100377.88;;;13.25;52.84
58471;BME280;44258;51.288;12.068;2023-01-01T05:14:39;100389.44;;;13.27;52.51
58471;BME280;44258;51.288;12.068;2023-01-01T05:17:05;100390.78;;;13.20;52.81
58471;BME280;44258;51.288;12.068;2023-01-01T05:19:32;100388.78;;;13.24;52.88
58471;BME280;44258;51.288;12.068;2023-01-01T05:21:58;100390.41;;;13.26;52.74
58471;BME280;44258;51.288;12.068;2023-01-01T05:24:25;100392.16;;;13.27;52.63
58471;BME280;44258;51.288;12.068;2023-01-01T05:26:53;100389.44;;;13.13;53.00
58471;BME280;44258;51.288;12.068;2023-01-01T05:29:19;100387.97;;;13.22;52.78
58471;BME280;44258;51.288;12.068;2023-01-01T05:31:48;100393.38;;;13.22;52.80
58471;BME280;44258;51.288;12.068;2023-01-01T05:34:15;100405.94;;;13.23;52.75
58471;BME280;44258;51.288;12.068;2023-01-01T05:36:42;100400.81;;;13.18;53.07
58471;BME280;44258;51.288;12.068;2023-01-01T05:39:10;100405.53;;;13.14;52.95
58471;BME280;44258;51.288;12.068;2023-01-01T05:41:37;100401.72;;;13.04;53.26
58471;BME280;44258;51.288;12.068;2023-01-01T05:44:05;100413.28;;;13.06;53.18
58471;BME280;44258;51.288;12.068;2023-01-01T05:46:33;100412.97;;;13.11;53.01
58471;BME280;44258;51.288;12.068;2023-01-01T05:49:00;100411.94;;;13.13;53.27
58471;BME280;44258;51.288;12.068;2023-01-01T05:51:28;100413.84;;;13.11;53.15
58471;BME280;44258;51.288;12.068;2023-01-01T05:53:56;100417.09;;;13.17;53.09
58471;BME280;44258;51.288;12.068;2023-01-01T05:56:24;100418.38;;;13.11;53.14
58471;BME280;44258;51.288;12.068;2023-01-01T05:58:50;100418.84;;;13.18;53.05
58471;BME280;44258;51.288;12.068;2023-01-01T06:01:20;100431.22;;;13.07;53.25
58471;BME280;44258;51.288;12.068;2023-01-01T06:03:48;100426.19;;;13.15;52.94
58471;BME280;44258;51.288;12.068;2023-01-01T06:06:16;100417.50;;;13.10;52.84
58471;BME280;44258;51.288;12.068;2023-01-01T06:08:48;100417.31;;;13.13;52.79
58471;BME280;44258;51.288;12.068;2023-01-01T06:11:15;100417.78;;;13.20;52.58
58471;BME280;44258;51.288;12.068;2023-01-01T06:13:42;100416.91;;;13.20;52.78
58471;BME280;44258;51.288;12.068;2023-01-01T06:16:08;100425.13;;;13.18;52.71
58471;BME280;44258;51.288;12.068;2023-01-01T06:18:37;100423.59;;;13.14;52.55
58471;BME280;44258;51.288;12.068;2023-01-01T06:21:05;100426.84;;;13.19;52.42
58471;BME280;44258;51.288;12.068;2023-01-01T06:23:32;100434.59;;;13.25;52.27
58471;BME280;44258;51.288;12.068;2023-01-01T06:26:04;100434.84;;;13.21;52.41
58471;BME280;44258;51.288;12.068;2023-01-01T06:28:30;100450.00;;;13.23;52.31
58471;BME280;44258;51.288;12.068;2023-01-01T06:30:58;100453.38;;;13.27;52.41
58471;BME280;44258;51.288;12.068;2023-01-01T06:33:25;100452.41;;;13.28;52.11
58471;BME280;44258;51.288;12.068;2023-01-01T06:35:53;100445.19;;;13.14;52.52
58471;BME280;44258;51.288;12.068;2023-01-01T06:38:20;100464.19;;;13.12;52.60
58471;BME280;44258;51.288;12.068;2023-01-01T06:40:54;100471.31;;;13.13;52.66
58471;BME280;44258;51.288;12.068;2023-01-01T06:43:21;100473.13;;;13.13;52.46
58471;BME280;44258;51.288;12.068;2023-01-01T06:45:48;100470.75;;;13.08;52.88
58471;BME280;44258;51.288;12.068;2023-01-01T06:48:14;100466.78;;;13.14;52.63
58471;BME280;44258;51.288;12.068;2023-01-01T06:50:40;100469.19;;;13.04;52.75
58471;BME280;44258;51.288;12.068;2023-01-01T06:53:08;100467.28;;;13.06;52.96
58471;BME280;44258;51.288;12.068;2023-01-01T06:55:35;100463.81;;;13.04;52.91
58471;BME280;44258;51.288;12.068;2023-01-01T06:58:02;100474.50;;;13.06;53.08
58471;BME280;44258;51.288;12.068;2023-01-01T07:00:33;100478.94;;;13.07;53.06
58471;BME280;44258;51.288;12.068;2023-01-01T07:03:00;100476.03;;;13.10;53.09
58471;BME280;44258;51.288;12.068;2023-01-01T07:05:26;100483.66;;;13.18;52.87
58471;BME280;44258;51.288;12.068;2023-01-01T07:07:53;100489.25;;;13.29;52.50
58471;BME280;44258;51.288;12.068;2023-01-01T07:10:20;100483.16;;;13.11;52.96
58471;BME280;44258;51.288;12.068;2023-01-01T07:12:47;100490.31;;;13.12;53.21
58471;BME280;44258;51.288;12.068;2023-01-01T07:15:13;100474.66;;;13.17;53.28
58471;BME280;44258;51.288;12.068;2023-01-01T07:17:43;100475.84;;;12.99;53.77
58471;BME280;44258;51.288;12.068;2023-01-01T07:20:10;100474.97;;;13.12;53.47
58471;BME280;44258;51.288;12.068;2023-01-01T07:22:37;100474.88;;;13.14;53.61
58471;BME280;44258;51.288;12.068;2023-01-01T07:25:06;100476.72;;;13.13;53.56
58471;BME280;44258;51.288;12.068;2023-01-01T07:27:38;100477.97;;;13.08;53.48
58471;BME280;44258;51.288;12.068;2023-01-01T07:30:07;100473.13;;;13.13;53.44
58471;BME280;44258;51.288;12.068;2023-01-01T07:32:34;100472.28;;;13.12;53.66
58471;BME280;44258;51.288;12.068;2023-01-01T07:35:01;100481.44;;;13.10;53.50
58471;BME280;44258;51.288;12.068;2023-01-01T07:37:27;100480.47;;;13.11;53.56
58471;BME280;44258;51.288;12.068;2023-01-01T07:39:54;100484.16;;;13.10;53.76
58471;BME280;44258;51.288;12.068;2023-01-01T07:42:21;100479.53;;;13.26;53.35
58471;BME280;44258;51.288;12.068;2023-01-01T07:44:49;100486.94;;;13.23;53.46
58471;BME280;44258;51.288;12.068;2023-01-01T07:47:20;100496.00;;;13.22;53.55
58471;BME280;44258;51.288;12.068;2023-01-01T07:49:47;100499.41;;;13.25;53.47
58471;BME280;44258;51.288;12.068;2023-01-01T07:52:13;100494.84;;;13.11;53.59
58471;BME280;44258;51.288;12.068;2023-01-01T07:54:40;100500.91;;;13.15;53.60
58471;BME280;44258;51.288;12.068;2023-01-01T07:57:07;100505.44;;;13.29;53.10
58471;BME280;44258;51.288;12.068;2023-01-01T07:59:33;100507.19;;;13.30;53.10
58471;BME280;44258;51.288;12.068;2023-01-01T08:02:01;100507.56;;;13.38;52.91
58471;BME280;44258;51.288;12.068;2023-01-01T08:04:28;100506.44;;;13.28;53.13
58471;BME280;44258;51.288;12.068;2023-01-01T08:06:54;100525.63;;;13.38;53.05
58471;BME280;44258;51.288;12.068;2023-01-01T08:09:21;100527.44;;;13.37;52.98
58471;BME280;44258;51.288;12.068;2023-01-01T08:11:48;100534.19;;;13.44;52.35
58471;BME280;44258;51.288;12.068;2023-01-01T08:14:17;100545.13;;;13.55;52.25
58471;BME280;44258;51.288;12.068;2023-01-01T08:16:43;100548.06;;;13.52;52.39
58471;BME280;44258;51.288;12.068;2023-01-01T08:19:11;100564.53;;;13.62;52.16
58471;BME280;44258;51.288;12.068;2023-01-01T08:21:37;100577.16;;;13.62;52.23
58471;BME280;44258;51.288;12.068;2023-01-01T08:24:04;100568.50;;;13.57;52.25
58471;BME280;44258;51.288;12.068;2023-01-01T08:26:33;100572.75;;;13.61;52.13
58471;BME280;44258;51.288;12.068;2023-01-01T08:29:01;100574.22;;;13.52;52.42
58471;BME280;44258;51.288;12.068;2023-01-01T08:31:28;100573.59;;;13.61;52.03
58471;BME280;44258;51.288;12.068;2023-01-01T08:33:55;100574.28;;;13.65;52.05
58471;BME280;44258;51.288;12.068;2023-01-01T08:36:23;100587.69;;;13.66;52.03
58471;BME280;44258;51.288;12.068;2023-01-01T08:38:52;100591.41;;;13.78;51.74
58471;BME280;44258;51.288;12.068;2023-01-01T08:41:19;100596.81;;;13.78;51.78
58471;BME280;44258;51.288;12.068;2023-01-01T08:43:45;100597.69;;;13.79;51.51
58471;BME280;44258;51.288;12.068;2023-01-01T08:46:12;100606.47;;;13.68;51.94
58471;BME280;44258;51.288;12.068;2023-01-01T08:48:38;100598.97;;;13.73;51.93
58471;BME280;44258;51.288;12.068;2023-01-01T08:51:05;100608.91;;;13.72;51.70
58471;BME280;44258;51.288;12.068;2023-01-01T08:53:33;100607.63;;;13.78;51.72
58471;BME280;44258;51.288;12.068;2023-01-01T08:56:01;100613.41;;;13.72;51.94
58471;BME280;44258;51.288;12.068;2023-01-01T08:58:29;100619.41;;;13.77;51.87
58471;BME280;44258;51.288;12.068;2023-01-01T09:00:56;100619.50;;;13.75;51.84
58471;BME280;44258;51.288;12.068;2023-01-01T09:03:24;100628.78;;;13.71;51.96
58471;BME280;44258;51.288;12.068;2023-01-01T09:05:51;100628.06;;;13.97;51.45
58471;BME280;44258;51.288;12.068;2023-01-01T09:08:19;100633.06;;;14.03;51.35
58471;BME280;44258;51.288;12.068;2023-01-01T09:10:48;100624.19;;;14.01;51.52
58471;BME280;44258;51.288;12.068;2023-01-01T09:13:17;100629.28;;;14.05;51.39
58471;BME280;44258;51.288;12.068;2023-01-01T09:15:44;100638.72;;;14.12;51.12
58471;BME280;44258;51.288;12.068;2023-01-01T09:18:11;100636.78;;;14.14;51.24
58471;BME280;44258;51.288;12.068;2023-01-01T09:20:38;100644.53;;;14.06;51.11
58471;BME280;44258;51.288;12.068;2023-01-01T09:23:05;100644.75;;;14.03;51.45
58471;BME280;44258;51.288;12.068;2023-01-01T09:25:33;100649.34;;;14.15;51.24
58471;BME280;44258;51.288;12.068;2023-01-01T09:28:03;100650.16;;;14.03;51.28
58471;BME280;44258;51.288;12.068;2023-01-01T09:30:30;100657.16;;;14.20;51.26
58471;BME280;44258;51.288;12.068;2023-01-01T09:32:57;100657.59;;;14.00;51.22
58471;BME280;44258;51.288;12.068;2023-01-01T09:35:24;100656.88;;;14.10;51.32
58471;BME280;44258;51.288;12.068;2023-01-01T09:37:51;100653.09;;;14.27;50.99
58471;BME280;44258;51.288;12.068;2023-01-01T09:40:27;100654.91;;;14.27;51.01
58471;BME280;44258;51.288;12.068;2023-01-01T09:43:06;100657.41;;;14.30;50.64
58471;BME280;44258;51.288;12.068;2023-01-01T09:45:42;100659.34;;;14.28;50.88
58471;BME280;44258;51.288;12.068;2023-01-01T09:48:19;100652.16;;;14.41;50.46
58471;BME280;44258;51.288;12.068;2023-01-01T09:50:46;100658.59;;;14.26;50.89
58471;BME280;44258;51.288;12.068;2023-01-01T09:53:16;100635.16;;;14.39;50.47
58471;BME280;44258;51.288;12.068;2023-01-01T09:55:46;100634.00;;;14.43;50.45
58471;BME280;44258;51.288;12.068;2023-01-01T09:58:17;100631.50;;;14.40;50.22
58471;BME280;44258;51.288;12.068;2023-01-01T10:00:50;100637.38;;;14.47;50.51
58471;BME280;44258;51.288;12.068;2023-01-01T10:03:25;100635.75;;;14.44;50.34
58471;BME280;44258;51.288;12.068;2023-01-01T10:06:00;100634.00;;;14.43;50.41
58471;BME280;44258;51.288;12.068;2023-01-01T10:08:40;100642.53;;;14.37;50.42
58471;BME280;44258;51.288;12.068;2023-01-01T10:11:18;100635.41;;;14.49;50.32
58471;BME280;44258;51.288;12.068;2023-01-01T10:13:48;100642.09;;;14.43;50.69
58471;BME280;44258;51.288;12.068;2023-01-01T10:16:25;100632.38;;;14.41;50.51
58471;BME280;44258;51.288;12.068;2023-01-01T10:18:57;100638.81;;;14.65;50.34
58471;BME280;44258;51.288;12.068;2023-01-01T10:21:26;100656.28;;;14.74;49.94
58471;BME280;44258;51.288;12.068;2023-01-01T10:23:58;100657.66;;;14.67;50.05
58471;BME280;44258;51.288;12.068;2023-01-01T10:26:28;100650.22;;;14.70;50.15
58471;BME280;44258;51.288;12.068;2023-01-01T10:29:01;100654.63;;;14.71;50.04
58471;BME280;44258;51.288;12.068;2023-01-01T10:31:32;100652.25;;;14.80;50.06
58471;BME280;44258;51.288;12.068;2023-01-01T10:34:02;100651.72;;;14.74;50.13
58471;BME280;44258;51.288;12.068;2023-01-01T10:36:32;100656.31;;;14.87;49.85
58471;BME280;44258;51.288;12.068;2023-01-01T10:38:58;100633.56;;;15.02;49.70
58471;BME280;44258;51.288;12.068;2023-01-01T10:41:25;100632.03;;;14.98;49.53
58471;BME280;44258;51.288;12.068;2023-01-01T10:43:51;100633.56;;;15.02;49.43
58471;BME280;44258;51.288;12.068;2023-01-01T10:46:21;100642.56;;;15.03;49.25
58471;BME280;44258;51.288;12.068;2023-01-01T10:49:07;100646.56;;;15.10;49.02
58471;BME280;44258;51.288;12.068;2023-01-01T10:51:37;100653.72;;;15.24;48.93
58471;BME280;44258;51.288;12.068;2023-01-01T10:54:23;100650.47;;;15.19;48.80
58471;BME280;44258;51.288;12.068;2023-01-01T10:56:52;100642.56;;;15.15;48.83
58471;BME280;44258;51.288;12.068;2023-01-01T10:59:33;100649.94;;;15.13;48.86
58471;BME280;44258;51.288;12.068;2023-01-01T11:02:15;100654.16;;;15.18;49.00
58471;BME280;44258;51.288;12.068;2023-01-01T11:04:42;100656.09;;;15.15;49.39
58471;BME280;44258;51.288;12.068;2023-01-01T11:07:17;100655.78;;;15.20;49.71
58471;BME280;44258;51.288;12.068;2023-01-01T11:09:47;100666.66;;;15.33;49.52
58471;BME280;44258;51.288;12.068;2023-01-01T11:12:18;100662.41;;;15.29;49.76
58471;BME280;44258;51.288;12.068;2023-01-01T11:14:49;100661.53;;;15.28;49.53
58471;BME280;44258;51.288;12.068;2023-01-01T11:17:21;100643.00;;;15.09;50.06
58471;BME280;44258;51.288;12.068;2023-01-01T11:19:49;100627.69;;;15.08;49.60
58471;BME280;44258;51.288;12.068;2023-01-01T11:22:35;100612.53;;;15.06;49.55
58471;BME280;44258;51.288;12.068;2023-01-01T11:25:03;100616.88;;;15.08;49.49
58471;BME280;44258;51.288;12.068;2023-01-01T11:27:40;100625.88;;;15.09;49.51
58471;BME280;44258;51.288;12.068;2023-01-01T11:30:20;100621.44;;;15.08;49.15
58471;BME280;44258;51.288;12.068;2023-01-01T11:32:50;100623.94;;;15.24;49.07
58471;BME280;44258;51.288;12.068;2023-01-01T11:35:20;100633.44;;;15.17;49.07
58471;BME280;44258;51.288;12.068;2023-01-01T11:37:48;100641.50;;;15.31;49.09
58471;BME280;44258;51.288;12.068;2023-01-01T11:40:18;100641.34;;;15.32;49.06
58471;BME280;44258;51.288;12.068;2023-01-01T11:42:49;100643.56;;;15.40;48.93
58471;BME280;44258;51.288;12.068;2023-01-01T11:45:19;100640.75;;;15.42;48.81
58471;BME280;44258;51.288;12.068;2023-01-01T11:47:52;100640.19;;;15.49;48.68
58471;BME280;44258;51.288;12.068;2023-01-01T11:50:24;100636.09;;;15.44;48.80
58471;BME280;44258;51.288;12.068;2023-01-01T11:52:54;100636.16;;;15.55;48.76
58471;BME280;44258;51.288;12.068;2023-01-01T11:55:34;100632.06;;;15.49;49.15
58471;BME280;44258;51.288;12.068;2023-01-01T11:58:09;100634.22;;;15.57;48.91
58471;BME280;44258;51.288;12.068;2023-01-01T12:00:38;100641.59;;;15.55;48.60
58471;BME280;44258;51.288;12.068;2023-01-01T12:03:14;100628.81;;;15.44;48.99
58471;BME280;44258;51.288;12.068;2023-01-01T12:05:47;100629.91;;;15.42;49.24
58471;BME280;44258;51.288;12.068;2023-01-01T12:08:20;100613.06;;;15.62;49.08
58471;BME280;44258;51.288;12.068;2023-01-01T12:10:51;100621.09;;;15.64;48.98
58471;BME280;44258;51.288;12.068;2023-01-01T12:13:24;100638.72;;;15.69;48.90
58471;BME280;44258;51.288;12.068;2023-01-01T12:16:00;100620.50;;;15.71;48.97
58471;BME280;44258;51.288;12.068;2023-01-01T12:18:36;100622.84;;;15.52;49.37
58471;BME280;44258;51.288;12.068;2023-01-01T12:21:10;100630.38;;;15.72;49.18
58471;BME280;44258;51.288;12.068;2023-01-01T12:23:40;100616.94;;;15.71;48.89
58471;BME280;44258;51.288;12.068;2023-01-01T12:26:14;100622.59;;;15.68;49.08
58471;BME280;44258;51.288;12.068;2023-01-01T12:28:54;100614.47;;;15.68;49.08
58471;BME280;44258;51.288;12.068;2023-01-01T12:31:36;100616.09;;;15.70;49.07
58471;BME280;44258;51.288;12.068;2023-01-01T12:34:11;100605.34;;;15.69;48.94
58471;BME280;44258;51.288;12.068;2023-01-01T12:36:46;100614.69;;;15.65;49.07
58471;BME280;44258;51.288;12.068;2023-01-01T12:42:19;100614.47;;;15.68;49.10
58471;BME280;44258;51.288;12.068;2023-01-01T12:45:07;100615.09;;;15.71;49.13
58471;BME280;44258;51.288;12.068;2023-01-01T12:47:43;100620.94;;;15.78;49.16
58471;BME280;44258;51.288;12.068;2023-01-01T12:50:22;100623.72;;;15.89;49.11
58471;BME280;44258;51.288;12.068;2023-01-01T12:53:01;100627.47;;;16.00;48.92
58471;BME280;44258;51.288;12.068;2023-01-01T12:56:03;100633.50;;;15.92;49.18
58471;BME280;44258;51.288;12.068;2023-01-01T12:58:33;100628.22;;;16.02;48.72
58471;BME280;44258;51.288;12.068;2023-01-01T13:01:05;100633.91;;;15.99;48.72